sensor_id;sensor_type;location;lat;lon;timestamp;temperature;humidity
45066;DHT22;30830;53.704;10.004;2023-05-10T00:01:37;14.00;88.10
45066;DHT22;30830;53.704;10.004;2023-05-10T00:04:03;14.00;88.20
45066;DHT22;30830;53.704;10.004;2023-05-10T00:06:29;14.00;88.40
45066;DHT22;30830;53.704;10.004;2023-05-10T00:08:55;13.90;88.50
45066;DHT22;30830;53.704;10.004;2023-05-10T00:11:20;13.90;88.90
45066;DHT22;30830;53.704;10.004;2023-05-10T00:13:46;13.90;89.10
45066;DHT22;30830;53.704;10.004;2023-05-10T00:16:12;13.90;90.00
45066;DHT22;30830;53.704;10.004;2023-05-10T00:18:38;13.80;89.90
45066;DHT22;30830;53.704;10.004;2023-05-10T00:21:04;13.80;89.70
45066;DHT22;30830;53.704;10.004;2023-05-10T00:23:30;13.80;90.10
45066;DHT22;30830;53.704;10.004;2023-05-10T00:25:56;13.80;90.50
45066;DHT22;30830;53.704;10.004;2023-05-10T00:28:21;13.70;90.20
45066;DHT22;30830;53.704;10.004;2023-05-10T00:30:47;13.70;90.50
45066;DHT22;30830;53.704;10.004;2023-05-10T00:33:12;13.70;90.50
45066;DHT22;30830;53.704;10.004;2023-05-10T00:35:38;13.70;90.50
45066;DHT22;30830;53.704;10.004;2023-05-10T00:38:04;13.70;90.80
45066;DHT22;30830;53.704;10.004;2023-05-10T00:40:29;13.60;90.80
45066;DHT22;30830;53.704;10.004;2023-05-10T00:42:56;13.60;91.00
45066;DHT22;30830;53.704;10.004;2023-05-10T00:45:22;13.60;91.30
45066;DHT22;30830;53.704;10.004;2023-05-10T00:47:48;13.50;91.30
45066;DHT22;30830;53.704;10.004;2023-05-10T00:50:14;13.40;91.50
45066;DHT22;30830;53.704;10.004;2023-05-10T00:52:41;13.40;91.30
45066;DHT22;30830;53.704;10.004;2023-05-10T00:55:08;13.40;91.80
45066;DHT22;30830;53.704;10.004;2023-05-10T00:57:34;13.40;91.80
45066;DHT22;30830;53.704;10.004;2023-05-10T01:00:01;13.30;92.00
45066;DHT22;30830;53.704;10.004;2023-05-10T01:02:27;13.30;91.90
45066;DHT22;30830;53.704;10.004;2023-05-10T01:04:53;13.30;92.10
45066;DHT22;30830;53.704;10.004;2023-05-10T01:07:19;13.30;92.30
45066;DHT22;30830;53.704;10.004;2023-05-10T01:09:45;13.20;92.30
45066;DHT22;30830;53.704;10.004;2023-05-10T01:12:11;13.20;92.50
45066;DHT22;30830;53.704;10.004;2023-05-10T01:14:37;13.20;92.50
45066;DHT22;30830;53.704;10.004;2023-05-10T01:17:04;13.20;92.40
45066;DHT22;30830;53.704;10.004;2023-05-10T01:19:34;13.20;92.40
45066;DHT22;30830;53.704;10.004;2023-05-10T01:36:20;13.00;93.40
45066;DHT22;30830;53.704;10.004;2023-05-10T01:39:06;12.90;93.60
45066;DHT22;30830;53.704;10.004;2023-05-10T01:44:35;12.80;94.30
45066;DHT22;30830;53.704;10.004;2023-05-10T01:47:07;12.80;94.20
45066;DHT22;30830;53.704;10.004;2023-05-10T01:49:39;12.80;94.40
45066;DHT22;30830;53.704;10.004;2023-05-10T01:52:10;12.70;94.40
45066;DHT22;30830;53.704;10.004;2023-05-10T01:54:53;12.70;94.50
45066;DHT22;30830;53.704;10.004;2023-05-10T01:57:22;12.60;94.50
45066;DHT22;30830;53.704;10.004;2023-05-10T01:59:50;12.60;94.60
45066;DHT22;30830;53.704;10.004;2023-05-10T02:02:19;12.60;94.70
45066;DHT22;30830;53.704;10.004;2023-05-10T02:04:46;12.60;95.00
45066;DHT22;30830;53.704;10.004;2023-05-10T02:07:14;12.50;95.20
45066;DHT22;30830;53.704;10.004;2023-05-10T02:09:42;12.50;95.30
45066;DHT22;30830;53.704;10.004;2023-05-10T02:12:08;12.50;95.40
45066;DHT22;30830;53.704;10.004;2023-05-10T02:14:37;12.50;95.50
45066;DHT22;30830;53.704;10.004;2023-05-10T02:17:05;12.40;95.60
45066;DHT22;30830;53.704;10.004;2023-05-10T02:19:32;12.40;95.70
45066;DHT22;30830;53.704;10.004;2023-05-10T02:22:01;12.40;95.80
45066;DHT22;30830;53.704;10.004;2023-05-10T02:24:28;12.40;95.90
45066;DHT22;30830;53.704;10.004;2023-05-10T02:26:55;12.30;95.90
45066;DHT22;30830;53.704;10.004;2023-05-10T02:29:23;12.30;96.00
45066;DHT22;30830;53.704;10.004;2023-05-10T02:31:51;12.30;96.20
45066;DHT22;30830;53.704;10.004;2023-05-10T02:34:17;12.30;96.30
45066;DHT22;30830;53.704;10.004;2023-05-10T02:36:44;12.30;96.40
45066;DHT22;30830;53.704;10.004;2023-05-10T02:39:11;12.30;96.40
45066;DHT22;30830;53.704;10.004;2023-05-10T02:41:40;12.20;96.50
45066;DHT22;30830;53.704;10.004;2023-05-10T02:44:07;12.20;96.60
45066;DHT22;30830;53.704;10.004;2023-05-10T02:46:34;12.20;96.80
45066;DHT22;30830;53.704;10.004;2023-05-10T02:49:00;12.20;96.80
45066;DHT22;30830;53.704;10.004;2023-05-10T02:51:30;12.10;96.90
45066;DHT22;30830;53.704;10.004;2023-05-10T02:53:57;12.10;97.10
45066;DHT22;30830;53.704;10.004;2023-05-10T02:56:33;12.10;97.20
45066;DHT22;30830;53.704;10.004;2023-05-10T02:58:59;12.10;97.40
45066;DHT22;30830;53.704;10.004;2023-05-10T03:01:25;12.00;97.60
45066;DHT22;30830;53.704;10.004;2023-05-10T03:03:50;12.00;97.70
45066;DHT22;30830;53.704;10.004;2023-05-10T03:06:16;12.00;97.90
45066;DHT22;30830;53.704;10.004;2023-05-10T03:08:43;12.00;98.20
45066;DHT22;30830;53.704;10.004;2023-05-10T03:11:36;11.90;98.20
45066;DHT22;30830;53.704;10.004;2023-05-10T03:17:00;11.90;98.60
45066;DHT22;30830;53.704;10.004;2023-05-10T03:19:32;11.80;98.60
45066;DHT22;30830;53.704;10.004;2023-05-10T03:22:01;11.80;98.90
45066;DHT22;30830;53.704;10.004;2023-05-10T03:24:30;11.80;99.10
45066;DHT22;30830;53.704;10.004;2023-05-10T03:26:56;11.80;99.00
45066;DHT22;30830;53.704;10.004;2023-05-10T03:29:25;11.80;99.00
45066;DHT22;30830;53.704;10.004;2023-05-10T03:31:51;11.80;99.60
45066;DHT22;30830;53.704;10.004;2023-05-10T03:34:22;11.80;99.80
45066;DHT22;30830;53.704;10.004;2023-05-10T03:36:48;11.80;99.90
45066;DHT22;30830;53.704;10.004;2023-05-10T03:39:14;11.70;99.70
45066;DHT22;30830;53.704;10.004;2023-05-10T03:41:39;11.70;99.70
45066;DHT22;30830;53.704;10.004;2023-05-10T03:44:05;11.70;99.90
45066;DHT22;30830;53.704;10.004;2023-05-10T03:46:30;11.70;99.90
45066;DHT22;30830;53.704;10.004;2023-05-10T03:48:56;11.70;99.90
45066;DHT22;30830;53.704;10.004;2023-05-10T03:51:24;11.60;99.90
45066;DHT22;30830;53.704;10.004;2023-05-10T03:53:53;11.60;99.90
45066;DHT22;30830;53.704;10.004;2023-05-10T03:56:19;11.60;99.90
45066;DHT22;30830;53.704;10.004;2023-05-10T03:58:46;11.60;99.90
45066;DHT22;30830;53.704;10.004;2023-05-10T04:01:11;11.60;99.90
45066;DHT22;30830;53.704;10.004;2023-05-10T04:03:37;11.60;99.90
45066;DHT22;30830;53.704;10.004;2023-05-10T04:06:03;11.70;99.90
45066;DHT22;30830;53.704;10.004;2023-05-10T04:08:29;11.70;99.90
45066;DHT22;30830;53.704;10.004;2023-05-10T04:11:08;11.70;99.90
45066;DHT22;30830;53.704;10.004;2023-05-10T04:13:34;11.70;99.90
45066;DHT22;30830;53.704;10.004;2023-05-10T04:16:00;11.70;99.90
45066;DHT22;30830;53.704;10.004;2023-05-10T04:18:26;11.70;99.90
45066;DHT22;30830;53.704;10.004;2023-05-10T04:20:51;11.70;99.90
45066;DHT22;30830;53.704;10.004;2023-05-10T04:23:17;11.70;99.90
45066;DHT22;30830;53.704;10.004;2023-05-10T04:25:43;11.70;99.90
45066;DHT22;30830;53.704;10.004;2023-05-10T04:28:08;11.80;99.90
45066;DHT22;30830;53.704;10.004;2023-05-10T04:30:37;11.80;99.90
45066;DHT22;30830;53.704;10.004;2023-05-10T04:33:03;11.80;99.90
45066;DHT22;30830;53.704;10.004;2023-05-10T04:35:28;11.80;99.90
45066;DHT22;30830;53.704;10.004;2023-05-10T04:37:54;11.80;99.90
45066;DHT22;30830;53.704;10.004;2023-05-10T04:40:20;11.90;99.90
45066;DHT22;30830;53.704;10.004;2023-05-10T04:42:46;11.90;99.90
45066;DHT22;30830;53.704;10.004;2023-05-10T04:45:12;11.90;99.90
45066;DHT22;30830;53.704;10.004;2023-05-10T04:47:37;11.90;99.90
45066;DHT22;30830;53.704;10.004;2023-05-10T04:50:04;12.00;99.90
45066;DHT22;30830;53.704;10.004;2023-05-10T04:52:29;12.00;99.90
45066;DHT22;30830;53.704;10.004;2023-05-10T04:54:55;12.00;99.90
45066;DHT22;30830;53.704;10.004;2023-05-10T04:57:20;12.00;99.90
45066;DHT22;30830;53.704;10.004;2023-05-10T04:59:46;12.00;99.90
45066;DHT22;30830;53.704;10.004;2023-05-10T05:02:12;12.10;99.90
45066;DHT22;30830;53.704;10.004;2023-05-10T05:04:37;12.10;99.90
45066;DHT22;30830;53.704;10.004;2023-05-10T05:07:03;12.10;99.90
45066;DHT22;30830;53.704;10.004;2023-05-10T05:09:28;12.20;99.90
45066;DHT22;30830;53.704;10.004;2023-05-10T05:11:54;12.30;99.90
45066;DHT22;30830;53.704;10.004;2023-05-10T05:14:20;12.30;99.90
45066;DHT22;30830;53.704;10.004;2023-05-10T05:16:50;12.40;99.90
45066;DHT22;30830;53.704;10.004;2023-05-10T05:19:16;12.40;99.90
45066;DHT22;30830;53.704;10.004;2023-05-10T05:21:42;12.60;99.90
45066;DHT22;30830;53.704;10.004;2023-05-10T05:24:07;12.60;99.90
45066;DHT22;30830;53.704;10.004;2023-05-10T05:26:33;12.70;99.90
45066;DHT22;30830;53.704;10.004;2023-05-10T05:28:59;12.80;99.90
45066;DHT22;30830;53.704;10.004;2023-05-10T05:31:24;12.80;99.90
45066;DHT22;30830;53.704;10.004;2023-05-10T05:33:50;12.90;99.90
45066;DHT22;30830;53.704;10.004;2023-05-10T05:36:15;13.00;99.90
45066;DHT22;30830;53.704;10.004;2023-05-10T05:38:41;13.10;99.90
45066;DHT22;30830;53.704;10.004;2023-05-10T05:41:08;13.10;99.90
45066;DHT22;30830;53.704;10.004;2023-05-10T05:43:33;13.20;99.90
45066;DHT22;30830;53.704;10.004;2023-05-10T05:45:59;13.20;99.90
45066;DHT22;30830;53.704;10.004;2023-05-10T05:48:25;13.30;99.90
45066;DHT22;30830;53.704;10.004;2023-05-10T05:50:54;13.40;99.90
45066;DHT22;30830;53.704;10.004;2023-05-10T05:53:21;13.40;99.90
45066;DHT22;30830;53.704;10.004;2023-05-10T05:55:56;13.50;99.90
45066;DHT22;30830;53.704;10.004;2023-05-10T05:58:24;13.60;99.70
45066;DHT22;30830;53.704;10.004;2023-05-10T06:00:50;13.70;98.80
45066;DHT22;30830;53.704;10.004;2023-05-10T06:03:16;13.80;98.40
45066;DHT22;30830;53.704;10.004;2023-05-10T06:05:41;13.90;98.90
45066;DHT22;30830;53.704;10.004;2023-05-10T06:08:07;14.00;98.00
45066;DHT22;30830;53.704;10.004;2023-05-10T06:10:32;14.10;98.20
45066;DHT22;30830;53.704;10.004;2023-05-10T06:12:58;14.30;97.20
45066;DHT22;30830;53.704;10.004;2023-05-10T06:15:23;14.40;97.50
45066;DHT22;30830;53.704;10.004;2023-05-10T06:17:49;14.60;98.20
45066;DHT22;30830;53.704;10.004;2023-05-10T06:20:15;14.80;96.90
45066;DHT22;30830;53.704;10.004;2023-05-10T06:22:41;14.90;96.30
45066;DHT22;30830;53.704;10.004;2023-05-10T06:25:07;15.00;96.50
45066;DHT22;30830;53.704;10.004;2023-05-10T06:27:33;15.20;96.50
45066;DHT22;30830;53.704;10.004;2023-05-10T06:29:58;15.40;95.80
45066;DHT22;30830;53.704;10.004;2023-05-10T06:32:24;15.50;94.70
45066;DHT22;30830;53.704;10.004;2023-05-10T06:34:50;15.60;95.20
45066;DHT22;30830;53.704;10.004;2023-05-10T06:37:15;15.80;94.90
45066;DHT22;30830;53.704;10.004;2023-05-10T06:39:41;15.90;94.80
45066;DHT22;30830;53.704;10.004;2023-05-10T06:42:06;16.00;95.00
45066;DHT22;30830;53.704;10.004;2023-05-10T06:44:32;16.20;93.80
45066;DHT22;30830;53.704;10.004;2023-05-10T06:46:57;16.30;94.10
45066;DHT22;30830;53.704;10.004;2023-05-10T06:49:23;16.40;94.40
45066;DHT22;30830;53.704;10.004;2023-05-10T06:51:48;16.50;94.80
45066;DHT22;30830;53.704;10.004;2023-05-10T06:54:14;16.70;94.40
45066;DHT22;30830;53.704;10.004;2023-05-10T06:56:39;16.80;93.20
45066;DHT22;30830;53.704;10.004;2023-05-10T06:59:05;16.90;94.20
45066;DHT22;30830;53.704;10.004;2023-05-10T07:01:31;17.00;93.50
45066;DHT22;30830;53.704;10.004;2023-05-10T07:03:56;17.10;92.40
45066;DHT22;30830;53.704;10.004;2023-05-10T07:06:22;16.90;93.60
45066;DHT22;30830;53.704;10.004;2023-05-10T07:08:47;16.70;93.20
45066;DHT22;30830;53.704;10.004;2023-05-10T07:11:13;16.60;93.60
45066;DHT22;30830;53.704;10.004;2023-05-10T07:13:38;16.60;93.20
45066;DHT22;30830;53.704;10.004;2023-05-10T07:16:06;16.80;93.10
45066;DHT22;30830;53.704;10.004;2023-05-10T07:18:33;17.00;93.50
45066;DHT22;30830;53.704;10.004;2023-05-10T07:20:59;17.00;92.40
45066;DHT22;30830;53.704;10.004;2023-05-10T07:23:24;17.00;92.80
45066;DHT22;30830;53.704;10.004;2023-05-10T07:25:51;17.10;93.40
45066;DHT22;30830;53.704;10.004;2023-05-10T07:28:19;17.20;93.60
45066;DHT22;30830;53.704;10.004;2023-05-10T07:30:45;17.40;92.80
45066;DHT22;30830;53.704;10.004;2023-05-10T07:33:13;17.40;92.90
45066;DHT22;30830;53.704;10.004;2023-05-10T07:35:39;17.40;92.50
45066;DHT22;30830;53.704;10.004;2023-05-10T07:38:05;17.50;91.70
45066;DHT22;30830;53.704;10.004;2023-05-10T07:40:31;17.60;91.40
45066;DHT22;30830;53.704;10.004;2023-05-10T07:42:56;17.50;91.70
45066;DHT22;30830;53.704;10.004;2023-05-10T07:45:22;17.50;92.40
45066;DHT22;30830;53.704;10.004;2023-05-10T07:47:48;17.60;92.60
45066;DHT22;30830;53.704;10.004;2023-05-10T07:50:14;17.70;93.10
45066;DHT22;30830;53.704;10.004;2023-05-10T07:52:40;17.80;92.70
45066;DHT22;30830;53.704;10.004;2023-05-10T07:55:06;17.80;92.10
45066;DHT22;30830;53.704;10.004;2023-05-10T07:57:35;17.90;92.90
45066;DHT22;30830;53.704;10.004;2023-05-10T08:00:02;17.90;93.10
45066;DHT22;30830;53.704;10.004;2023-05-10T08:02:28;17.90;93.10
45066;DHT22;30830;53.704;10.004;2023-05-10T08:04:53;17.80;92.00
45066;DHT22;30830;53.704;10.004;2023-05-10T08:07:19;18.00;92.50
45066;DHT22;30830;53.704;10.004;2023-05-10T08:09:44;18.10;92.40
45066;DHT22;30830;53.704;10.004;2023-05-10T08:12:10;18.20;92.60
45066;DHT22;30830;53.704;10.004;2023-05-10T08:14:36;18.20;92.20
45066;DHT22;30830;53.704;10.004;2023-05-10T08:17:04;18.30;92.80
45066;DHT22;30830;53.704;10.004;2023-05-10T08:19:30;18.30;92.90
45066;DHT22;30830;53.704;10.004;2023-05-10T08:21:55;18.30;92.00
45066;DHT22;30830;53.704;10.004;2023-05-10T08:24:22;18.30;91.20
45066;DHT22;30830;53.704;10.004;2023-05-10T08:26:47;18.30;91.60
45066;DHT22;30830;53.704;10.004;2023-05-10T08:29:13;18.20;91.70
45066;DHT22;30830;53.704;10.004;2023-05-10T08:31:39;18.10;91.50
45066;DHT22;30830;53.704;10.004;2023-05-10T08:34:05;18.10;91.90
45066;DHT22;30830;53.704;10.004;2023-05-10T08:36:30;18.10;92.50
45066;DHT22;30830;53.704;10.004;2023-05-10T08:38:57;18.00;92.30
45066;DHT22;30830;53.704;10.004;2023-05-10T08:41:24;18.00;93.20
45066;DHT22;30830;53.704;10.004;2023-05-10T08:43:51;18.00;93.50
45066;DHT22;30830;53.704;10.004;2023-05-10T08:46:18;18.00;93.00
45066;DHT22;30830;53.704;10.004;2023-05-10T08:48:45;18.00;92.70
45066;DHT22;30830;53.704;10.004;2023-05-10T08:51:14;18.10;92.30
45066;DHT22;30830;53.704;10.004;2023-05-10T08:53:40;18.10;92.90
45066;DHT22;30830;53.704;10.004;2023-05-10T08:56:06;18.20;93.10
45066;DHT22;30830;53.704;10.004;2023-05-10T08:58:32;18.20;92.00
45066;DHT22;30830;53.704;10.004;2023-05-10T09:00:59;18.20;92.30
45066;DHT22;30830;53.704;10.004;2023-05-10T09:03:24;18.30;91.70
45066;DHT22;30830;53.704;10.004;2023-05-10T09:05:50;18.30;91.80
45066;DHT22;30830;53.704;10.004;2023-05-10T09:08:16;18.30;92.80
45066;DHT22;30830;53.704;10.004;2023-05-10T09:10:43;18.30;91.30
45066;DHT22;30830;53.704;10.004;2023-05-10T09:13:10;18.40;92.80
45066;DHT22;30830;53.704;10.004;2023-05-10T09:15:37;18.40;92.50
45066;DHT22;30830;53.704;10.004;2023-05-10T09:18:02;18.50;92.00
45066;DHT22;30830;53.704;10.004;2023-05-10T09:20:28;18.50;92.40
45066;DHT22;30830;53.704;10.004;2023-05-10T09:22:54;18.60;91.90
45066;DHT22;30830;53.704;10.004;2023-05-10T09:25:19;18.60;91.80
45066;DHT22;30830;53.704;10.004;2023-05-10T09:27:46;18.80;92.20
45066;DHT22;30830;53.704;10.004;2023-05-10T09:30:26;18.80;92.50
45066;DHT22;30830;53.704;10.004;2023-05-10T09:32:53;18.80;90.80
45066;DHT22;30830;53.704;10.004;2023-05-10T09:35:21;18.80;91.70
45066;DHT22;30830;53.704;10.004;2023-05-10T09:37:48;18.80;91.60
45066;DHT22;30830;53.704;10.004;2023-05-10T09:40:18;18.90;90.70
45066;DHT22;30830;53.704;10.004;2023-05-10T09:42:55;18.80;91.80
45066;DHT22;30830;53.704;10.004;2023-05-10T09:45:22;18.90;92.00
45066;DHT22;30830;53.704;10.004;2023-05-10T09:47:48;18.80;91.00
45066;DHT22;30830;53.704;10.004;2023-05-10T09:50:14;18.80;92.00
45066;DHT22;30830;53.704;10.004;2023-05-10T09:52:58;18.60;92.20
45066;DHT22;30830;53.704;10.004;2023-05-10T09:58:03;18.30;93.00
45066;DHT22;30830;53.704;10.004;2023-05-10T10:00:35;18.30;92.40
45066;DHT22;30830;53.704;10.004;2023-05-10T10:03:01;18.20;92.70
45066;DHT22;30830;53.704;10.004;2023-05-10T10:05:30;18.20;93.50
45066;DHT22;30830;53.704;10.004;2023-05-10T10:08:00;18.30;94.80
45066;DHT22;30830;53.704;10.004;2023-05-10T10:10:26;18.40;94.20
45066;DHT22;30830;53.704;10.004;2023-05-10T10:12:53;18.50;93.50
45066;DHT22;30830;53.704;10.004;2023-05-10T10:15:21;18.50;92.00
45066;DHT22;30830;53.704;10.004;2023-05-10T10:17:46;18.30;92.20
45066;DHT22;30830;53.704;10.004;2023-05-10T10:20:13;18.30;93.10
45066;DHT22;30830;53.704;10.004;2023-05-10T10:22:39;18.20;94.10
45066;DHT22;30830;53.704;10.004;2023-05-10T10:25:05;18.20;95.90
45066;DHT22;30830;53.704;10.004;2023-05-10T10:27:41;18.10;96.20
45066;DHT22;30830;53.704;10.004;2023-05-10T10:30:13;18.00;97.10
45066;DHT22;30830;53.704;10.004;2023-05-10T10:35:45;17.50;99.90
45066;DHT22;30830;53.704;10.004;2023-05-10T10:38:12;17.20;99.90
45066;DHT22;30830;53.704;10.004;2023-05-10T10:40:38;17.00;99.90
45066;DHT22;30830;53.704;10.004;2023-05-10T10:43:24;16.70;99.90
45066;DHT22;30830;53.704;10.004;2023-05-10T10:46:13;16.50;99.90
45066;DHT22;30830;53.704;10.004;2023-05-10T10:48:49;16.30;99.90
45066;DHT22;30830;53.704;10.004;2023-05-10T10:51:16;16.20;99.90
45066;DHT22;30830;53.704;10.004;2023-05-10T10:53:43;16.10;99.90
45066;DHT22;30830;53.704;10.004;2023-05-10T10:56:10;16.00;99.90
45066;DHT22;30830;53.704;10.004;2023-05-10T10:58:38;15.90;99.90
45066;DHT22;30830;53.704;10.004;2023-05-10T11:01:16;15.90;99.90
45066;DHT22;30830;53.704;10.004;2023-05-10T11:06:35;15.80;99.90
45066;DHT22;30830;53.704;10.004;2023-05-10T11:09:12;15.80;99.90
45066;DHT22;30830;53.704;10.004;2023-05-10T11:11:53;15.90;99.90
45066;DHT22;30830;53.704;10.004;2023-05-10T11:14:23;15.90;99.90
45066;DHT22;30830;53.704;10.004;2023-05-10T11:16:49;15.90;99.90
45066;DHT22;30830;53.704;10.004;2023-05-10T11:19:17;15.80;99.90
45066;DHT22;30830;53.704;10.004;2023-05-10T11:21:47;15.90;99.90
45066;DHT22;30830;53.704;10.004;2023-05-10T11:24:21;15.90;99.90
45066;DHT22;30830;53.704;10.004;2023-05-10T11:26:50;16.00;99.90
45066;DHT22;30830;53.704;10.004;2023-05-10T11:29:17;16.00;99.90
45066;DHT22;30830;53.704;10.004;2023-05-10T11:31:47;16.00;99.90
45066;DHT22;30830;53.704;10.004;2023-05-10T11:34:29;16.00;99.90
45066;DHT22;30830;53.704;10.004;2023-05-10T11:36:56;16.00;99.90
45066;DHT22;30830;53.704;10.004;2023-05-10T11:39:29;16.00;99.90
45066;DHT22;30830;53.704;10.004;2023-05-10T11:41:55;16.00;99.90
45066;DHT22;30830;53.704;10.004;2023-05-10T11:44:21;16.00;99.90
45066;DHT22;30830;53.704;10.004;2023-05-10T11:46:46;16.00;99.90
45066;DHT22;30830;53.704;10.004;2023-05-10T11:49:12;16.00;99.90
45066;DHT22;30830;53.704;10.004;2023-05-10T11:51:38;16.10;99.90
45066;DHT22;30830;53.704;10.004;2023-05-10T11:54:10;16.10;99.90
45066;DHT22;30830;53.704;10.004;2023-05-10T11:56:38;16.20;99.90
45066;DHT22;30830;53.704;10.004;2023-05-10T11:59:03;16.30;99.90
45066;DHT22;30830;53.704;10.004;2023-05-10T12:01:29;16.30;99.90
45066;DHT22;30830;53.704;10.004;2023-05-10T12:03:57;16.30;99.90
45066;DHT22;30830;53.704;10.004;2023-05-10T12:06:32;16.30;99.90
45066;DHT22;30830;53.704;10.004;2023-05-10T12:09:06;16.40;99.90
45066;DHT22;30830;53.704;10.004;2023-05-10T12:11:31;16.40;99.90
45066;DHT22;30830;53.704;10.004;2023-05-10T12:13:57;16.30;99.90
45066;DHT22;30830;53.704;10.004;2023-05-10T12:16:28;16.30;99.90
45066;DHT22;30830;53.704;10.004;2023-05-10T12:18:57;16.30;99.90
45066;DHT22;30830;53.704;10.004;2023-05-10T12:21:23;16.10;99.90
45066;DHT22;30830;53.704;10.004;2023-05-10T12:23:50;16.10;99.90
45066;DHT22;30830;53.704;10.004;2023-05-10T12:26:16;16.10;99.90
45066;DHT22;30830;53.704;10.004;2023-05-10T12:28:42;16.10;99.90
45066;DHT22;30830;53.704;10.004;2023-05-10T12:31:08;16.10;99.90
45066;DHT22;30830;53.704;10.004;2023-05-10T12:33:41;16.10;99.90
45066;DHT22;30830;53.704;10.004;2023-05-10T12:36:08;16.10;99.90
45066;DHT22;30830;53.704;10.004;2023-05-10T12:38:36;16.10;99.90
45066;DHT22;30830;53.704;10.004;2023-05-10T12:41:07;16.20;99.90
45066;DHT22;30830;53.704;10.004;2023-05-10T12:43:34;16.20;99.90
45066;DHT22;30830;53.704;10.004;2023-05-10T12:46:12;16.30;99.90
45066;DHT22;30830;53.704;10.004;2023-05-10T12:48:40;16.40;99.90
45066;DHT22;30830;53.704;10.004;2023-05-10T12:51:07;16.40;99.90
45066;DHT22;30830;53.704;10.004;2023-05-10T12:53:35;16.50;99.90
45066;DHT22;30830;53.704;10.004;2023-05-10T12:56:00;16.60;99.90
45066;DHT22;30830;53.704;10.004;2023-05-10T12:58:26;16.70;99.90
45066;DHT22;30830;53.704;10.004;2023-05-10T13:00:52;16.90;99.90
45066;DHT22;30830;53.704;10.004;2023-05-10T13:03:18;17.00;99.90
45066;DHT22;30830;53.704;10.004;2023-05-10T13:05:46;17.00;99.90
45066;DHT22;30830;53.704;10.004;2023-05-10T13:08:12;17.10;99.90
45066;DHT22;30830;53.704;10.004;2023-05-10T13:10:37;17.10;99.90
45066;DHT22;30830;53.704;10.004;2023-05-10T13:13:03;17.10;99.90
45066;DHT22;30830;53.704;10.004;2023-05-10T13:15:29;17.10;99.90
45066;DHT22;30830;53.704;10.004;2023-05-10T13:17:54;17.20;99.90
45066;DHT22;30830;53.704;10.004;2023-05-10T13:20:20;17.20;99.90
45066;DHT22;30830;53.704;10.004;2023-05-10T13:22:46;17.20;99.90
45066;DHT22;30830;53.704;10.004;2023-05-10T13:25:12;17.30;99.90
45066;DHT22;30830;53.704;10.004;2023-05-10T13:27:39;17.30;99.90
45066;DHT22;30830;53.704;10.004;2023-05-10T13:30:05;17.30;99.90
45066;DHT22;30830;53.704;10.004;2023-05-10T13:32:31;17.30;99.90
45066;DHT22;30830;53.704;10.004;2023-05-10T13:34:56;17.40;99.90
45066;DHT22;30830;53.704;10.004;2023-05-10T13:37:22;17.50;99.90
45066;DHT22;30830;53.704;10.004;2023-05-10T13:39:48;17.50;99.90
45066;DHT22;30830;53.704;10.004;2023-05-10T13:42:14;17.60;99.90
45066;DHT22;30830;53.704;10.004;2023-05-10T13:44:39;17.60;99.90
45066;DHT22;30830;53.704;10.004;2023-05-10T13:47:05;17.80;99.90
45066;DHT22;30830;53.704;10.004;2023-05-10T13:49:31;17.90;99.90
45066;DHT22;30830;53.704;10.004;2023-05-10T13:51:57;18.00;99.90
45066;DHT22;30830;53.704;10.004;2023-05-10T13:54:23;18.10;99.90
45066;DHT22;30830;53.704;10.004;2023-05-10T13:56:49;18.20;99.90
45066;DHT22;30830;53.704;10.004;2023-05-10T13:59:14;18.20;99.90
45066;DHT22;30830;53.704;10.004;2023-05-10T14:01:41;18.10;99.90
45066;DHT22;30830;53.704;10.004;2023-05-10T14:04:07;18.10;99.90
45066;DHT22;30830;53.704;10.004;2023-05-10T14:06:35;18.00;99.90
45066;DHT22;30830;53.704;10.004;2023-05-10T14:09:02;18.00;99.90
45066;DHT22;30830;53.704;10.004;2023-05-10T14:11:27;18.00;99.90
45066;DHT22;30830;53.704;10.004;2023-05-10T14:13:53;18.00;99.90
45066;DHT22;30830;53.704;10.004;2023-05-10T14:16:19;18.00;99.90
45066;DHT22;30830;53.704;10.004;2023-05-10T14:18:45;17.90;99.90
45066;DHT22;30830;53.704;10.004;2023-05-10T14:21:11;18.00;99.90
45066;DHT22;30830;53.704;10.004;2023-05-10T14:23:37;18.00;99.90
45066;DHT22;30830;53.704;10.004;2023-05-10T14:26:02;18.00;99.90
45066;DHT22;30830;53.704;10.004;2023-05-10T14:28:28;18.00;99.90
45066;DHT22;30830;53.704;10.004;2023-05-10T14:30:54;17.90;99.90
45066;DHT22;30830;53.704;10.004;2023-05-10T14:33:19;17.80;99.90
45066;DHT22;30830;53.704;10.004;2023-05-10T14:35:46;17.70;99.90
45066;DHT22;30830;53.704;10.004;2023-05-10T14:38:12;17.50;99.90
45066;DHT22;30830;53.704;10.004;2023-05-10T14:40:37;17.60;99.90
45066;DHT22;30830;53.704;10.004;2023-05-10T14:43:03;17.70;99.90
45066;DHT22;30830;53.704;10.004;2023-05-10T14:45:28;17.80;99.90
45066;DHT22;30830;53.704;10.004;2023-05-10T14:47:54;17.80;99.90
45066;DHT22;30830;53.704;10.004;2023-05-10T14:50:20;17.80;99.90
45066;DHT22;30830;53.704;10.004;2023-05-10T14:52:46;17.80;99.90
45066;DHT22;30830;53.704;10.004;2023-05-10T14:55:11;17.70;99.90
45066;DHT22;30830;53.704;10.004;2023-05-10T14:57:37;17.80;99.90
45066;DHT22;30830;53.704;10.004;2023-05-10T15:00:03;17.80;99.90
45066;DHT22;30830;53.704;10.004;2023-05-10T15:02:30;17.80;99.90
45066;DHT22;30830;53.704;10.004;2023-05-10T15:04:56;17.70;99.90
45066;DHT22;30830;53.704;10.004;2023-05-10T15:07:23;17.70;99.90
45066;DHT22;30830;53.704;10.004;2023-05-10T15:09:49;17.60;99.90
45066;DHT22;30830;53.704;10.004;2023-05-10T15:12:15;17.70;99.90
45066;DHT22;30830;53.704;10.004;2023-05-10T15:14:41;17.80;99.90
45066;DHT22;30830;53.704;10.004;2023-05-10T15:17:07;17.90;99.90
45066;DHT22;30830;53.704;10.004;2023-05-10T15:19:33;17.90;99.90
45066;DHT22;30830;53.704;10.004;2023-05-10T15:21:58;18.00;99.90
45066;DHT22;30830;53.704;10.004;2023-05-10T15:24:24;18.00;99.90
45066;DHT22;30830;53.704;10.004;2023-05-10T15:26:50;18.00;99.90
45066;DHT22;30830;53.704;10.004;2023-05-10T15:29:15;18.10;99.90
45066;DHT22;30830;53.704;10.004;2023-05-10T15:31:46;18.00;99.90
45066;DHT22;30830;53.704;10.004;2023-05-10T15:34:12;18.00;99.90
45066;DHT22;30830;53.704;10.004;2023-05-10T15:36:38;18.00;99.90
45066;DHT22;30830;53.704;10.004;2023-05-10T15:39:03;18.00;99.90
45066;DHT22;30830;53.704;10.004;2023-05-10T15:41:29;17.90;99.90
45066;DHT22;30830;53.704;10.004;2023-05-10T15:43:55;18.00;99.90